WESTPORT MEDIA Westport In The Media

Enter your "Place, State", US Zip Code or ICAO:  

Palma De Mallorca / Son San Juan, Spain

 Lat: 39.55N, Lon: 2.73E
ICAO Used: LEPA
Current Conditions
Updated: 9:00 AM GMT1 SUN APR 20 2014
Sun & Moon Information
Mostly Cloudy
Mostly Cloudy
Temp: 18°C
Humidity: 82%
Wind Speed: W 8 MPH
Barometer: 1002 mb
Dewpoint: 15°C
Heat Index: 18°C
Wind Chill: 18°C
Civil Twilight: 5:36 AM GMT1 Moon Phase:
Waning Gibbous Moon
Sunrise: 6:04 AM GMT1
Sunset: 7:31 PM GMT1
Civil Twilight: 7:59 PM GMT1
Forecast for Palma De Mallorca / Son San Juan, Spain:
(Forecast based on TAF for )
0100 AM GMT1 SUN APR 20 2014
  
MORNING AFTERNOON EVENING OVERNIGHT
Fair Fair Fair Fair
ZoneCast:
Dated: 0100 AM GMT1 SUN APR 20 2014
Morning...Becoming fair with winds from the southsouthwest at 14 mph.

Afternoon...Fair with winds from the southsouthwest at 14 mph.

Evening...Fair with winds from the southsouthwest at 14 mph.

Overnight...Fair with winds from the southsouthwest at 14 mph.

Original Encoded TAF:
Dated: 0100 AM GMT1 SUN APR 20 2014
TAF AMD LEPA 200607Z 2006/2106 07008KT 9999 FEW015 SCT020 TX22/2013Z TN14/2006Z 
     TEMPO 2006/2010 4000 RA BR BKN014 
     BECMG 2007/2011 24012KT 
     BECMG 2023/2103 17005KT